Time;durP1;ratioP1;P1;durP2;ratioP2;P2;SDS_P1;SDS_P2;PMS_P1;PMS_P2;Temp;Humidity;BMP_temperature;BMP_pressure;BME280_temperature;BME280_humidity;BME280_pressure;Samples;Min_cycle;Max_cycle;Signal;HPM_P1;HPM_P2
2022/05/03 00:01:37;;;;;;;10.02;7.53;;;14.90;53.40;;;;;;5035205;28;20032;-66
2022/05/03 00:04:14;;;;;;;11.73;7.82;;;14.90;53.60;;;;;;5058304;28;20038;-66
2022/05/03 00:06:52;;;;;;;10.80;7.10;;;14.80;53.60;;;;;;5049864;28;20033;-66
2022/05/03 00:09:27;;;;;;;10.77;7.65;;;14.80;53.70;;;;;;5040702;28;20124;-66
2022/05/03 00:12:03;;;;;;;11.88;7.57;;;14.80;53.80;;;;;;5040361;28;20022;-66
2022/05/03 00:15:05;;;;;;;11.98;7.50;;;14.70;53.90;;;;;;5041290;28;21157;-66
2022/05/03 00:17:33;;;;;;;12.07;7.88;;;14.70;53.40;;;;;;5021685;28;20533;-66
2022/05/03 00:19:59;;;;;;;12.02;7.95;;;14.60;53.70;;;;;;5024135;28;20040;-66
2022/05/03 00:22:25;;;;;;;13.63;8.18;;;14.50;54.50;;;;;;5011073;28;20222;-66
2022/05/03 00:24:54;;;;;;;10.52;8.02;;;14.60;54.80;;;;;;5015775;28;20494;-66
2022/05/03 00:27:24;;;;;;;12.68;7.60;;;14.60;55.10;;;;;;5019484;28;20701;-67
2022/05/03 00:29:55;;;;;;;10.98;7.80;;;14.50;55.40;;;;;;5017000;28;20025;-66
2022/05/03 00:32:22;;;;;;;10.13;7.30;;;14.50;55.50;;;;;;5014856;28;20054;-66
2022/05/03 00:34:50;;;;;;;12.35;8.00;;;14.50;55.70;;;;;;5034167;28;20128;-66
2022/05/03 00:37:17;;;;;;;12.68;7.57;;;14.40;55.70;;;;;;5019264;28;20506;-66
2022/05/03 00:39:43;;;;;;;12.00;7.88;;;14.40;55.70;;;;;;5024867;28;20048;-67
2022/05/03 00:42:23;;;;;;;10.80;7.47;;;14.40;55.70;;;;;;5016572;28;20120;-67
2022/05/03 00:45:32;;;;;;;11.53;7.70;;;14.30;55.80;;;;;;5017035;28;20131;-67
2022/05/03 00:48:09;;;;;;;10.75;7.60;;;14.20;56.00;;;;;;4944364;28;20044;-66
2022/05/03 00:50:44;;;;;;;12.18;7.28;;;14.20;56.10;;;;;;4949824;28;20131;-66
2022/05/03 00:53:31;;;;;;;12.55;7.82;;;14.10;56.30;;;;;;4961364;28;20084;-67
2022/05/03 00:56:29;;;;;;;12.10;7.70;;;14.10;56.50;;;;;;4958262;28;20051;-66
2022/05/03 00:58:58;;;;;;;10.43;7.40;;;14.10;56.50;;;;;;4951775;28;20067;-66
2022/05/03 01:01:59;;;;;;;11.18;7.43;;;14.00;56.60;;;;;;4964300;28;20490;-66
2022/05/03 01:04:55;;;;;;;11.50;7.65;;;14.00;56.80;;;;;;4952169;28;20046;-66
2022/05/03 01:07:25;;;;;;;12.10;7.55;;;13.90;56.90;;;;;;4967035;28;20046;-66
2022/05/03 01:09:51;;;;;;;;;;;13.90;57.00;;;;;;4965099;28;20023;-66
2022/05/03 01:12:24;;;;;;;10.25;7.35;;;13.80;57.10;;;;;;4963167;28;20362;-66
2022/05/03 01:14:53;;;;;;;12.40;7.95;;;13.80;57.30;;;;;;4962590;28;20030;-66
2022/05/03 01:17:41;;;;;;;10.63;7.30;;;13.80;57.50;;;;;;4961397;28;20613;-66
2022/05/03 01:20:10;;;;;;;12.30;7.72;;;13.80;57.50;;;;;;4952193;28;20043;-66
2022/05/03 01:23:14;;;;;;;10.90;8.20;;;13.80;56.70;;;;;;4965255;28;20491;-66
2022/05/03 01:25:58;;;;;;;12.60;7.88;;;13.70;57.60;;;;;;5039612;28;20079;-66
2022/05/03 01:28:31;;;;;;;12.07;8.25;;;14.30;58.10;;;;;;5036334;28;20021;-66
2022/05/03 01:31:10;;;;;;;12.35;8.07;;;13.70;58.00;;;;;;5042091;28;20037;-66
2022/05/03 01:33:42;;;;;;;16.33;8.60;;;13.70;58.20;;;;;;5058532;28;20037;-66
2022/05/03 01:36:09;;;;;;;11.85;8.13;;;13.70;58.30;;;;;;5044838;28;20043;-67
2022/05/03 01:39:13;;;;;;;14.60;8.13;;;13.70;58.50;;;;;;5038224;28;20138;-67
2022/05/03 01:42:22;;;;;;;10.70;7.68;;;13.70;58.80;;;;;;5034890;28;20627;-67
2022/05/03 01:45:04;;;;;;;12.93;7.68;;;13.70;58.10;;;;;;5013525;28;20030;-67
2022/05/03 01:48:04;;;;;;;10.77;7.78;;;13.70;60.00;;;;;;5010631;28;20193;-67
2022/05/03 01:50:45;;;;;;;11.60;7.85;;;13.80;58.30;;;;;;5010847;28;20109;-67
2022/05/03 01:53:13;;;;;;;12.10;8.15;;;13.70;59.10;;;;;;5014089;28;20128;-66
2022/05/03 01:56:10;;;;;;;13.63;8.05;;;13.80;59.20;;;;;;5007597;28;20042;-67
2022/05/03 01:58:45;;;;;;;15.55;8.00;;;13.90;59.40;;;;;;5016998;28;20041;-67
2022/05/03 02:01:35;;;;;;;12.68;7.95;;;13.90;59.40;;;;;;5008459;28;20118;-67
2022/05/03 02:04:13;;;;;;;12.98;7.97;;;13.90;59.40;;;;;;4940090;28;20059;-67
2022/05/03 02:06:59;;;;;;;13.55;7.85;;;14.00;59.40;;;;;;4947339;29;20035;-67
2022/05/03 02:10:29;;;;;;;13.10;8.15;;;14.00;59.50;;;;;;4941867;29;20051;-67
2022/05/03 02:13:00;;;;;;;11.45;8.10;;;14.10;59.50;;;;;;4862260;29;20045;-67
2022/05/03 02:15:48;;;;;;;15.13;8.35;;;14.10;59.50;;;;;;4880066;29;20044;-67
2022/05/03 02:18:26;;;;;;;12.68;8.13;;;14.10;59.50;;;;;;4889717;29;20048;-67
2022/05/03 02:20:54;;;;;;;13.18;8.50;;;14.10;59.50;;;;;;4891827;29;20040;-67
2022/05/03 02:23:50;;;;;;;13.75;8.73;;;14.10;59.70;;;;;;4892844;29;20040;-67
2022/05/03 02:26:34;;;;;;;13.02;8.05;;;14.20;59.70;;;;;;4892353;29;20629;-67
2022/05/03 02:29:02;;;;;;;12.60;8.15;;;14.20;59.80;;;;;;4892974;29;20040;-67
2022/05/03 02:31:42;;;;;;;12.88;8.45;;;14.20;59.80;;;;;;4887012;29;20075;-67
2022/05/03 02:34:39;;;;;;;15.00;8.30;;;14.20;59.90;;;;;;4893697;29;20543;-67
2022/05/03 02:37:18;;;;;;;13.18;8.40;;;14.20;60.20;;;;;;4893547;29;20076;-67
2022/05/03 02:39:57;;;;;;;14.48;8.73;;;14.20;60.40;;;;;;4894449;29;20660;-67
2022/05/03 02:42:22;;;;;;;12.23;8.77;;;14.20;60.40;;;;;;4958993;28;20039;-67
2022/05/03 02:44:52;;;;;;;13.75;8.90;;;14.20;60.50;;;;;;4958620;28;20031;-67
2022/05/03 02:47:45;;;;;;;13.05;8.10;;;14.10;60.60;;;;;;5006889;28;20052;-67
2022/05/03 02:50:15;;;;;;;15.20;9.10;;;14.20;61.00;;;;;;5035813;28;20126;-67
2022/05/03 02:52:54;;;;;;;14.77;8.25;;;14.20;61.20;;;;;;5034206;28;20033;-67
2022/05/03 02:55:25;;;;;;;13.48;8.82;;;14.10;62.40;;;;;;5032957;28;20048;-67
2022/05/03 02:57:58;;;;;;;13.60;9.30;;;14.10;61.50;;;;;;5032352;28;20033;-67
2022/05/03 03:03:26;;;;;;;15.15;9.07;;;14.10;61.50;;;;;;5047048;28;20451;-67
2022/05/03 03:06:01;;;;;;;13.50;8.63;;;14.10;61.80;;;;;;5050275;28;20076;-67
2022/05/03 03:08:36;;;;;;;14.52;9.32;;;14.10;61.90;;;;;;5042606;28;20037;-67
2022/05/03 03:11:09;;;;;;;13.57;9.15;;;14.10;61.90;;;;;;5044126;28;20037;-67
2022/05/03 03:13:58;;;;;;;18.17;9.75;;;14.10;61.90;;;;;;5031849;28;20036;-67
2022/05/03 03:16:31;;;;;;;13.88;9.55;;;14.10;61.90;;;;;;5046232;28;20492;-67
2022/05/03 03:19:28;;;;;;;12.77;9.20;;;14.10;61.90;;;;;;5046148;28;20509;-67
2022/05/03 03:21:56;;;;;;;15.57;9.25;;;14.10;62.00;;;;;;5047830;28;20036;-67
2022/05/03 03:24:22;;;;;;;15.13;9.60;;;14.10;61.90;;;;;;5033563;28;20567;-67
2022/05/03 03:26:51;;;;;;;18.42;9.77;;;14.10;62.10;;;;;;5036852;28;20033;-67
2022/05/03 03:29:18;;;;;;;14.40;9.40;;;14.10;62.30;;;;;;5031827;28;20061;-67
2022/05/03 03:31:46;;;;;;;17.45;9.05;;;14.10;62.50;;;;;;5043366;28;20025;-67
2022/05/03 03:34:13;;;;;;;14.90;9.32;;;14.00;62.10;;;;;;5048804;28;20033;-67
2022/05/03 03:36:41;;;;;;;13.73;9.27;;;14.00;63.10;;;;;;5037371;28;20257;-67
2022/05/03 03:39:07;;;;;;;14.25;9.52;;;14.00;63.00;;;;;;5040107;28;20069;-67
2022/05/03 03:41:33;;;;;;;13.00;9.25;;;11.30;61.20;;;;;;5040763;28;20412;-67
2022/05/03 03:43:59;;;;;;;14.93;9.25;;;14.00;62.80;;;;;;5044834;28;20029;-67
2022/05/03 03:46:24;;;;;;;15.93;10.70;;;14.00;63.70;;;;;;5035958;28;20558;-67
2022/05/03 03:48:50;;;;;;;14.45;10.38;;;14.00;63.80;;;;;;5036043;28;20550;-67
2022/05/03 03:51:16;;;;;;;16.05;10.88;;;14.00;63.00;;;;;;5042495;28;20496;-67
2022/05/03 03:53:42;;;;;;;17.95;10.48;;;14.00;63.80;;;;;;5036788;28;20025;-67
2022/05/03 03:56:09;;;;;;;20.50;10.88;;;14.00;64.00;;;;;;5034027;28;20089;-67
2022/05/03 03:58:35;;;;;;;16.17;10.48;;;13.90;63.40;;;;;;5035994;28;20025;-67
2022/05/03 04:01:01;;;;;;;17.00;11.50;;;13.90;64.30;;;;;;5043128;28;20071;-67
2022/05/03 04:03:27;;;;;;;14.85;10.27;;;13.90;63.70;;;;;;5054310;28;20482;-67
2022/05/03 04:05:53;;;;;;;14.73;10.25;;;13.90;63.70;;;;;;5049294;28;20028;-67
2022/05/03 04:08:19;;;;;;;16.15;10.95;;;13.90;63.70;;;;;;5044552;28;20056;-67
2022/05/03 04:10:45;;;;;;;16.90;10.63;;;13.90;64.80;;;;;;5041948;28;20056;-67
2022/05/03 04:13:13;;;;;;;16.85;11.52;;;13.90;64.00;;;;;;5042672;28;20064;-67
2022/05/03 04:15:39;;;;;;;17.98;11.95;;;13.80;64.70;;;;;;5037638;28;20079;-67
2022/05/03 04:18:08;;;;;;;18.50;12.35;;;13.80;64.00;;;;;;5045001;28;20056;-67
2022/05/03 04:20:34;;;;;;;18.42;12.13;;;13.80;64.80;;;;;;5040919;28;20511;-67
2022/05/03 04:23:01;;;;;;;20.67;11.77;;;13.80;64.90;;;;;;5035277;28;20028;-67
2022/05/03 04:25:26;;;;;;;17.42;11.32;;;13.80;65.00;;;;;;5040655;28;20049;-66
2022/05/03 04:27:52;;;;;;;17.27;12.20;;;13.70;65.10;;;;;;5038530;28;20064;-67
2022/05/03 04:30:18;;;;;;;20.05;12.00;;;13.70;65.30;;;;;;5043022;28;20031;-67
2022/05/03 04:32:43;;;;;;;17.33;12.10;;;13.70;64.70;;;;;;5042130;28;20025;-67
2022/05/03 04:35:10;;;;;;;18.67;12.07;;;13.70;64.80;;;;;;5030614;28;20022;-67
2022/05/03 04:37:36;;;;;;;19.58;11.75;;;13.70;65.80;;;;;;5043591;28;20045;-67
2022/05/03 04:40:01;;;;;;;18.73;12.18;;;13.70;65.80;;;;;;5041425;28;20033;-69
2022/05/03 04:42:27;;;;;;;19.38;13.07;;;13.60;65.70;;;;;;5033977;28;20037;-68
2022/05/03 04:44:53;;;;;;;18.30;12.48;;;13.70;64.90;;;;;;5035635;28;20880;-68
2022/05/03 04:47:18;;;;;;;23.77;12.07;;;13.70;65.90;;;;;;5044018;28;20060;-67
2022/05/03 04:49:44;;;;;;;19.75;12.05;;;13.70;65.90;;;;;;5044702;28;20088;-67
2022/05/03 04:52:10;;;;;;;16.67;11.45;;;13.70;65.30;;;;;;5033697;28;20060;-67
2022/05/03 04:54:36;;;;;;;18.42;11.52;;;13.70;66.10;;;;;;5047517;28;20021;-67
2022/05/03 04:57:05;;;;;;;20.00;11.88;;;13.70;66.20;;;;;;5037249;28;20049;-68
2022/05/03 04:59:30;;;;;;;20.58;12.65;;;13.70;65.60;;;;;;5039548;28;20545;-68
2022/05/03 05:01:56;;;;;;;20.70;13.10;;;13.70;65.70;;;;;;5046732;28;20025;-68
2022/05/03 05:04:22;;;;;;;20.60;12.65;;;13.70;65.80;;;;;;5046529;28;20104;-69
2022/05/03 05:06:48;;;;;;;28.00;12.57;;;13.70;66.00;;;;;;5032646;28;20121;-68
2022/05/03 05:09:13;;;;;;;18.40;12.20;;;13.70;67.00;;;;;;5037686;28;20030;-68
2022/05/03 05:11:39;;;;;;;21.55;12.70;;;13.70;66.80;;;;;;5041392;28;20037;-68
2022/05/03 05:14:05;;;;;;;23.17;13.15;;;13.70;67.60;;;;;;5042671;28;20527;-67
2022/05/03 05:16:30;;;;;;;20.23;13.98;;;13.80;67.90;;;;;;5042607;28;20036;-67
2022/05/03 05:18:56;;;;;;;22.13;12.82;;;13.70;68.20;;;;;;5047146;28;20075;-69
2022/05/03 05:21:22;;;;;;;21.60;14.18;;;13.80;67.40;;;;;;5041280;28;20469;-67
2022/05/03 05:23:48;;;;;;;21.98;14.10;;;13.80;68.30;;;;;;5047072;28;20717;-67
2022/05/03 05:26:14;;;;;;;21.25;14.25;;;13.80;68.20;;;;;;5040646;28;20029;-68
2022/05/03 05:28:39;;;;;;;26.15;15.00;;;13.90;67.50;;;;;;5043662;28;20100;-67
2022/05/03 05:31:05;;;;;;;23.05;14.70;;;14.00;67.40;;;;;;5037328;28;20033;-67
2022/05/03 05:33:31;;;;;;;23.85;14.55;;;14.00;67.40;;;;;;5053131;28;20067;-68
2022/05/03 05:35:56;;;;;;;22.83;14.95;;;14.00;67.60;;;;;;5044549;28;20037;-68
2022/05/03 05:38:22;;;;;;;25.70;14.98;;;14.00;67.60;;;;;;5041091;28;20394;-69
2022/05/03 05:40:48;;;;;;;22.55;14.68;;;14.10;68.30;;;;;;5044806;28;20041;-69
2022/05/03 05:43:15;;;;;;;26.75;15.35;;;14.10;68.10;;;;;;5034765;28;20099;-68
2022/05/03 05:45:41;;;;;;;27.48;16.42;;;14.10;67.90;;;;;;5033710;28;20025;-69
2022/05/03 05:48:08;;;;;;;24.50;15.48;;;14.20;66.90;;;;;;5034104;28;20029;-69
2022/05/03 05:50:35;;;;;;;25.75;15.48;;;14.20;67.90;;;;;;5037445;28;20416;-69
2022/05/03 05:55:45;;;;;;;26.38;16.33;;;14.40;66.90;;;;;;5035748;28;20052;-69
2022/05/03 05:58:11;;;;;;;23.40;15.82;;;14.30;67.70;;;;;;5038985;28;20033;-69
2022/05/03 06:00:37;;;;;;;23.20;15.93;;;14.40;67.90;;;;;;5031844;28;20467;-69
2022/05/03 06:03:03;;;;;;;25.02;15.98;;;14.40;68.20;;;;;;5044867;28;20035;-69
2022/05/03 06:05:30;;;;;;;36.13;22.35;;;14.50;67.30;;;;;;5044266;28;20027;-69
2022/05/03 06:07:57;;;;;;;27.63;17.25;;;14.50;66.90;;;;;;5032666;28;20110;-68
2022/05/03 06:10:23;;;;;;;28.20;17.63;;;;;;;;;;5045584;28;20040;-69
2022/05/03 06:12:49;;;;;;;28.17;17.10;;;14.50;66.80;;;;;;5043053;28;20054;-68
2022/05/03 06:15:15;;;;;;;30.13;17.42;;;14.60;67.60;;;;;;5033341;28;20033;-69
2022/05/03 06:17:41;;;;;;;25.65;16.90;;;14.60;67.50;;;;;;5031280;28;20484;-69
2022/05/03 06:20:10;;;;;;;26.42;17.08;;;14.60;67.60;;;;;;5033759;28;20029;-69
2022/05/03 06:22:39;;;;;;;30.67;17.35;;;14.70;66.80;;;;;;5043593;28;20021;-69
2022/05/03 06:25:09;;;;;;;28.33;17.70;;;14.70;67.60;;;;;;5058721;28;20029;-68
2022/05/03 06:27:38;;;;;;;25.50;16.23;;;14.70;66.80;;;;;;5029492;28;20038;-69
2022/05/03 06:30:08;;;;;;;27.48;16.98;;;14.70;66.60;;;;;;5036812;28;20025;-69
2022/05/03 06:32:35;;;;;;;31.63;17.38;;;14.70;67.40;;;;;;5039363;28;20079;-69
2022/05/03 06:35:01;;;;;;;29.17;17.08;;;14.80;67.30;;;;;;5044583;28;20057;-69
2022/05/03 06:37:27;;;;;;;29.42;17.60;;;14.80;67.20;;;;;;5028607;28;20065;-69
2022/05/03 06:39:52;;;;;;;26.02;17.17;;;14.80;67.10;;;;;;5042564;28;20059;-69
2022/05/03 06:42:18;;;;;;;27.75;17.35;;;14.80;67.10;;;;;;5032309;28;20109;-69
2022/05/03 06:44:44;;;;;;;29.55;17.70;;;14.90;67.10;;;;;;5037197;28;20055;-69
2022/05/03 06:47:10;;;;;;;27.90;17.83;;;14.90;66.20;;;;;;5035361;28;20041;-69
2022/05/03 06:49:36;;;;;;;26.92;16.85;;;14.90;67.10;;;;;;5035438;28;20032;-69
2022/05/03 06:52:06;;;;;;;26.10;16.88;;;14.90;67.80;;;;;;5044643;28;20033;-68
2022/05/03 06:54:32;;;;;;;31.83;18.20;;;15.00;66.10;;;;;;5030657;28;20040;-69
2022/05/03 06:56:57;;;;;;;27.40;17.58;;;15.00;66.90;;;;;;5030597;28;20439;-69
2022/05/03 06:59:23;;;;;;;28.50;17.40;;;15.10;66.90;;;;;;5031627;28;20400;-69
2022/05/03 07:01:49;;;;;;;30.30;18.45;;;15.10;65.90;;;;;;5039979;28;20025;-69
2022/05/03 07:04:14;;;;;;;26.92;16.88;;;15.10;66.70;;;;;;5058194;28;20470;-69
2022/05/03 07:06:40;;;;;;;29.70;17.63;;;15.10;65.50;;;;;;5037152;28;20043;-69
2022/05/03 07:09:06;;;;;;;26.45;17.60;;;15.10;66.30;;;;;;5037971;28;20026;-69
2022/05/03 07:11:31;;;;;;;24.95;17.50;;;15.20;66.10;;;;;;5039690;28;20044;-69
2022/05/03 07:13:57;;;;;;;27.33;18.27;;;15.20;65.90;;;;;;5048104;28;20025;-69
2022/05/03 07:16:23;;;;;;;29.20;18.67;;;15.30;65.80;;;;;;5030764;28;20401;-69
2022/05/03 07:24:17;;;;;;;29.23;17.30;;;15.30;65.90;;;;;;5044693;28;20048;-69
2022/05/03 07:26:43;;;;;;;30.10;17.92;;;15.30;65.90;;;;;;5046079;28;20025;-69
2022/05/03 07:29:09;;;;;;;27.35;18.05;;;15.30;66.00;;;;;;5044954;28;20160;-69
2022/05/03 07:31:35;;;;;;;27.65;17.88;;;15.30;66.20;;;;;;5045418;28;20116;-69
2022/05/03 07:34:01;;;;;;;30.10;17.88;;;15.40;66.10;;;;;;5056866;28;20109;-69
2022/05/03 07:36:30;;;;;;;34.13;18.80;;;15.40;66.10;;;;;;5047444;28;20395;-69
2022/05/03 07:38:56;;;;;;;28.75;17.35;;;15.50;66.10;;;;;;5041786;28;20037;-69
2022/05/03 07:41:21;;;;;;;28.30;17.70;;;15.60;65.00;;;;;;5048481;28;20021;-69
2022/05/03 07:43:47;;;;;;;29.25;17.88;;;15.60;64.80;;;;;;5052775;28;20508;-69
2022/05/03 07:46:13;;;;;;;28.13;16.98;;;15.60;65.60;;;;;;5049906;28;20033;-69
2022/05/03 07:48:38;;;;;;;27.40;18.75;;;15.70;65.60;;;;;;5048558;28;20021;-69
2022/05/03 07:51:04;;;;;;;28.50;18.63;;;15.80;64.30;;;;;;5037748;28;20556;-69
2022/05/03 07:53:30;;;;;;;28.63;17.75;;;15.80;64.00;;;;;;5043616;28;20036;-69
2022/05/03 07:55:56;;;;;;;29.17;18.75;;;15.80;64.00;;;;;;5045165;28;20052;-69
2022/05/03 07:58:22;;;;;;;29.05;17.98;;;15.80;64.70;;;;;;5045239;28;20091;-69
2022/05/03 08:00:48;;;;;;;28.05;17.10;;;15.90;63.60;;;;;;5048459;28;20071;-69
2022/05/03 08:03:19;;;;;;;28.92;18.65;;;16.00;63.50;;;;;;5049834;28;20036;-69
2022/05/03 08:05:45;;;;;;;28.60;18.48;;;16.00;63.30;;;;;;5050543;28;20044;-69
2022/05/03 08:08:11;;;;;;;28.13;18.20;;;16.00;63.00;;;;;;5045939;28;20083;-69
2022/05/03 08:10:36;;;;;;;30.13;18.55;;;16.10;62.80;;;;;;5045085;28;20452;-69
2022/05/03 08:13:02;;;;;;;27.23;17.17;;;16.10;63.60;;;;;;5041796;28;20499;-69
2022/05/03 08:15:28;;;;;;;30.70;17.42;;;16.10;63.30;;;;;;5034711;28;20104;-69
2022/05/03 08:17:54;;;;;;;27.40;17.65;;;16.20;62.00;;;;;;5037790;28;20108;-69
2022/05/03 08:20:20;;;;;;;27.52;18.40;;;16.20;62.70;;;;;;5042896;28;20025;-69
2022/05/03 08:22:46;;;;;;;30.30;16.92;;;16.30;61.40;;;;;;5045421;28;20025;-69
2022/05/03 08:25:12;;;;;;;30.10;18.27;;;16.40;62.20;;;;;;5031829;28;20033;-69
2022/05/03 08:27:38;;;;;;;26.55;17.85;;;16.50;62.00;;;;;;5035087;28;20029;-69
2022/05/03 08:30:08;;;;;;;30.75;18.13;;;16.60;60.40;;;;;;5033128;28;20179;-69
2022/05/03 08:32:34;;;;;;;26.30;17.73;;;16.70;60.30;;;;;;5045493;28;20037;-69
2022/05/03 08:35:00;;;;;;;28.48;17.52;;;16.70;60.90;;;;;;5045901;28;20032;-69
2022/05/03 08:42:55;;;;;;;25.45;17.13;;;16.80;59.30;;;;;;5046798;28;20071;-69
2022/05/03 08:45:21;;;;;;;27.17;17.65;;;16.80;59.70;;;;;;5037143;28;20462;-69
2022/05/03 08:47:48;;;;;;;25.42;17.05;;;16.90;59.30;;;;;;5042493;28;20420;-69
2022/05/03 08:50:18;;;;;;;26.80;16.48;;;16.90;60.20;;;;;;5044093;28;20033;-69
2022/05/03 08:52:54;;;;;;;26.90;17.50;;;17.10;57.70;;;;;;5036394;28;20060;-69
2022/05/03 08:55:21;;;;;;;26.58;17.52;;;17.20;58.50;;;;;;5035895;28;20936;-69
2022/05/03 08:57:47;;;;;;;28.73;18.17;;;17.30;58.20;;;;;;5048163;28;20049;-69
2022/05/03 09:00:15;;;;;;;30.83;17.38;;;17.50;57.90;;;;;;5035961;28;20033;-69
2022/05/03 09:02:46;;;;;;;33.15;17.73;;;17.50;57.10;;;;;;5047467;28;20405;-69
2022/05/03 09:05:12;;;;;;;26.20;16.92;;;17.70;56.10;;;;;;5051919;28;20033;-69
2022/05/03 09:07:39;;;;;;;25.65;17.33;;;17.60;56.90;;;;;;5031659;28;20064;-69
2022/05/03 09:10:17;;;;;;;26.65;17.15;;;17.70;56.90;;;;;;5031377;28;20037;-69
2022/05/03 09:12:46;;;;;;;28.00;16.77;;;17.80;56.10;;;;;;5031331;28;20036;-69
2022/05/03 09:15:12;;;;;;;26.48;16.65;;;17.80;55.50;;;;;;5036261;28;20045;-69
2022/05/03 09:17:41;;;;;;;29.80;16.67;;;17.90;54.20;;;;;;5036452;28;20029;-69
2022/05/03 09:26:12;;;;;;;25.92;16.23;;;18.00;54.50;;;;;;5044180;28;20082;-69
2022/05/03 09:28:48;;;;;;;23.85;16.05;;;18.20;53.30;;;;;;5029903;28;20029;-69
2022/05/03 09:31:26;;;;;;;24.02;15.77;;;18.30;52.90;;;;;;5029563;28;20112;-69
2022/05/03 09:33:52;;;;;;;26.75;15.63;;;18.40;51.60;;;;;;5060787;28;20076;-69
2022/05/03 09:36:18;;;;;;;22.02;15.15;;;18.50;51.00;;;;;;5033777;28;20573;-69
2022/05/03 09:38:48;;;;;;;21.35;14.52;;;18.60;50.90;;;;;;5034190;28;20021;-69
2022/05/03 09:41:15;;;;;;;25.53;15.77;;;18.70;50.80;;;;;;5032455;28;20029;-69
2022/05/03 09:44:07;;;;;;;21.83;14.50;;;18.90;50.50;;;;;;5032553;28;20056;-69
2022/05/03 09:46:53;;;;;;;22.80;14.95;;;19.10;50.00;;;;;;5042756;28;20780;-69
2022/05/03 09:49:38;;;;;;;23.25;15.77;;;19.30;49.10;;;;;;5040763;28;20041;-69
2022/05/03 09:52:05;;;;;;;24.05;16.67;;;19.50;48.80;;;;;;5045480;28;20396;-69
2022/05/03 09:54:50;;;;;;;23.13;15.57;;;19.80;48.40;;;;;;5038302;28;20385;-69
2022/05/03 09:57:25;;;;;;;20.98;14.95;;;20.20;47.90;;;;;;5033245;28;20049;-69
2022/05/03 09:59:55;;;;;;;24.30;16.13;;;20.50;47.50;;;;;;5031908;28;20021;-69
2022/05/03 10:02:23;;;;;;;37.83;16.55;;;20.80;46.70;;;;;;5031941;28;20201;-69
2022/05/03 10:04:52;;;;;;;20.83;14.73;;;21.00;45.40;;;;;;5045757;28;20045;-69
2022/05/03 10:07:20;;;;;;;21.60;15.15;;;21.20;45.00;;;;;;5030070;28;20939;-69
2022/05/03 10:09:46;;;;;;;23.02;15.02;;;21.40;44.30;;;;;;5047184;28;20029;-69
2022/05/03 10:12:14;;;;;;;20.33;14.73;;;21.60;43.40;;;;;;5033237;28;20033;-69
2022/05/03 10:14:41;;;;;;;20.75;14.05;;;21.70;42.10;;;;;;5036058;28;20492;-69
2022/05/03 10:20:36;;;;;;;22.00;13.07;;;22.00;40.10;;;;;;5044506;28;20078;-69
2022/05/03 10:23:02;;;;;;;19.75;14.07;;;22.20;39.00;;;;;;5041257;28;20176;-69
2022/05/03 10:25:46;;;;;;;20.83;13.75;;;22.20;39.00;;;;;;5031919;28;20040;-68
2022/05/03 10:28:12;;;;;;;21.00;13.65;;;22.40;38.30;;;;;;5044071;28;20116;-68
2022/05/03 10:30:40;;;;;;;20.90;13.38;;;22.60;38.10;;;;;;5034229;28;20083;-67
2022/05/03 10:33:23;;;;;;;18.67;13.23;;;22.70;39.10;;;;;;5045632;28;20501;-69
2022/05/03 10:35:51;;;;;;;18.25;13.13;;;22.70;38.60;;;;;;5042053;28;20029;-69
2022/05/03 10:38:38;;;;;;;15.40;12.23;;;22.80;37.50;;;;;;5034270;28;20028;-69
2022/05/03 10:41:09;;;;;;;17.23;13.18;;;22.80;37.20;;;;;;5044944;28;20735;-68
2022/05/03 10:43:35;;;;;;;;;;;22.90;36.80;;;;;;5045849;28;20112;-68
2022/05/03 10:46:18;;;;;;;17.10;12.80;;;23.00;37.00;;;;;;5042748;28;19995;-68
2022/05/03 10:49:09;;;;;;;17.92;12.82;;;23.20;36.40;;;;;;5046085;28;20435;-68
2022/05/03 10:51:36;;;;;;;18.33;14.05;;;23.20;35.10;;;;;;5042868;28;20078;-68
2022/05/03 10:54:04;;;;;;;18.52;13.10;;;23.20;34.70;;;;;;5037205;28;20040;-68
2022/05/03 10:56:30;;;;;;;20.58;12.95;;;23.30;35.00;;;;;;5040809;28;20050;-68
2022/05/03 10:59:14;;;;;;;17.88;12.45;;;23.40;35.10;;;;;;5043418;28;20071;-68
2022/05/03 11:01:57;;;;;;;15.27;11.65;;;23.60;35.90;;;;;;5032193;28;20036;-69
2022/05/03 11:04:24;;;;;;;14.95;11.40;;;23.80;34.60;;;;;;5059318;28;20054;-68
2022/05/03 11:06:53;;;;;;;17.33;11.70;;;23.90;34.10;;;;;;5043461;28;20392;-68
2022/05/03 11:09:31;;;;;;;16.48;11.75;;;24.00;34.40;;;;;;5041883;28;20021;-68
2022/05/03 11:11:59;;;;;;;12.23;9.05;;;24.20;33.80;;;;;;5037928;28;20071;-68
2022/05/03 11:14:24;;;;;;;11.68;8.45;;;24.40;32.30;;;;;;5037961;28;20037;-68
2022/05/03 11:17:05;;;;;;;13.25;8.90;;;24.40;30.80;;;;;;5047259;28;20040;-68
2022/05/03 11:19:34;;;;;;;;;;;24.30;30.80;;;;;;5047578;28;20029;-68
2022/05/03 11:22:01;;;;;;;12.15;7.65;;;24.80;31.30;;;;;;5034614;28;19909;-68
2022/05/03 11:24:29;;;;;;;12.45;8.40;;;25.20;30.50;;;;;;5038519;28;20504;-67
2022/05/03 11:26:59;;;;;;;13.38;7.93;;;25.40;30.60;;;;;;5038204;28;20373;-68
2022/05/03 11:29:34;;;;;;;11.95;6.93;;;25.60;30.20;;;;;;5044632;28;20017;-68
2022/05/03 11:32:01;;;;;;;9.73;6.45;;;25.90;29.50;;;;;;5049671;28;20045;-68
2022/05/03 11:34:27;;;;;;;10.68;6.20;;;25.90;28.80;;;;;;5045000;28;20025;-68
2022/05/03 11:36:53;;;;;;;8.98;6.28;;;26.20;28.90;;;;;;5050196;28;20487;-68
2022/05/03 11:39:21;;;;;;;10.20;6.97;;;26.50;29.00;;;;;;5046683;28;20031;-68
2022/05/03 11:41:47;;;;;;;14.77;7.47;;;26.80;28.50;;;;;;5038622;28;20845;-68
2022/05/03 11:44:14;;;;;;;10.75;8.00;;;27.20;28.10;;;;;;5033701;28;20117;-68
2022/05/03 11:46:42;;;;;;;8.38;6.35;;;27.50;27.80;;;;;;5034046;28;20036;-68
2022/05/03 11:49:10;;;;;;;7.60;4.82;;;28.50;26.70;;;;;;5044932;28;20037;-68
2022/05/03 11:57:14;;;;;;;6.47;4.43;;;29.90;23.70;;;;;;5034070;28;20068;-68
2022/05/03 11:59:43;;;;;;;5.97;3.80;;;29.10;24.50;;;;;;5034450;28;20026;-68
2022/05/03 12:02:29;;;;;;;8.07;3.90;;;29.20;24.00;;;;;;5045049;28;20128;-68
2022/05/03 12:05:04;;;;;;;6.82;3.92;;;29.20;23.90;;;;;;5062537;28;20037;-68
2022/05/03 12:07:35;;;;;;;5.95;2.92;;;28.70;24.00;;;;;;5062970;28;20499;-68
2022/05/03 12:10:00;;;;;;;;;;;27.80;24.90;;;;;;5066066;28;20090;-68
2022/05/03 12:12:43;;;;;;;6.03;2.75;;;27.10;25.30;;;;;;5063986;28;19912;-68
2022/05/03 12:15:24;;;;;;;5.35;3.00;;;26.40;25.90;;;;;;5061439;28;20556;-68
2022/05/03 12:18:00;;;;;;;7.82;3.35;;;25.60;27.10;;;;;;5059368;28;20047;-68
2022/05/03 12:20:39;;;;;;;7.03;3.65;;;25.00;27.90;;;;;;5059005;28;20049;-68
2022/05/03 12:23:14;;;;;;;5.15;3.22;;;24.40;28.50;;;;;;5057891;28;20033;-68
2022/05/03 12:25:44;;;;;;;5.63;2.88;;;23.90;28.30;;;;;;5061880;28;20032;-67
2022/05/03 12:28:10;;;;;;;;;;;23.30;29.30;;;;;;5060365;28;20035;-68
2022/05/03 12:30:36;;;;;;;5.15;3.15;;;22.80;30.00;;;;;;5064238;28;19905;-67
2022/05/03 12:33:07;;;;;;;7.18;3.50;;;22.40;30.60;;;;;;5039912;28;20025;-67
2022/05/03 12:35:39;;;;;;;6.90;4.35;;;22.10;31.60;;;;;;5033630;28;20500;-67
2022/05/03 12:38:10;;;;;;;7.47;4.78;;;21.80;32.80;;;;;;5036289;28;20836;-67
2022/05/03 12:40:48;;;;;;;7.40;5.28;;;21.50;34.00;;;;;;5029778;28;20036;-67
2022/05/03 12:43:21;;;;;;;8.68;5.20;;;21.30;34.50;;;;;;5030971;28;20033;-68
2022/05/03 12:46:04;;;;;;;10.52;5.40;;;21.10;35.20;;;;;;5034893;28;20079;-68
2022/05/03 12:48:31;;;;;;;9.55;5.97;;;20.90;35.40;;;;;;5044653;28;20083;-67
2022/05/03 12:50:58;;;;;;;9.80;6.20;;;20.70;36.00;;;;;;5036348;28;20034;-68
2022/05/03 12:53:28;;;;;;;9.77;6.10;;;20.60;36.70;;;;;;5035214;28;20057;-67
2022/05/03 12:55:54;;;;;;;;;;;20.50;37.10;;;;;;5044813;28;20535;-67
2022/05/03 12:58:27;;;;;;;12.93;5.80;;;20.40;36.80;;;;;;5032742;28;19921;-67
2022/05/03 13:00:54;;;;;;;14.98;5.38;;;20.40;37.10;;;;;;5029728;28;20059;-67
2022/05/03 13:03:21;;;;;;;7.93;5.45;;;20.40;37.60;;;;;;5032626;28;20042;-67
2022/05/03 13:05:48;;;;;;;9.05;5.15;;;20.30;37.50;;;;;;5033055;28;20037;-67
2022/05/03 13:08:15;;;;;;;16.65;6.00;;;20.30;37.30;;;;;;5037525;28;20408;-67
2022/05/03 13:10:41;;;;;;;8.85;4.88;;;20.20;37.30;;;;;;5032324;28;20547;-67
2022/05/03 13:13:07;;;;;;;11.55;5.60;;;20.20;37.90;;;;;;5029056;28;20135;-67
2022/05/03 13:15:33;;;;;;;8.55;5.30;;;20.20;37.70;;;;;;5034095;28;20041;-68
2022/05/03 13:18:00;;;;;;;12.45;6.03;;;20.10;37.40;;;;;;5041065;28;20033;-67
2022/05/03 13:20:26;;;;;;;9.93;5.60;;;20.10;37.40;;;;;;5040890;28;20108;-68
2022/05/03 13:22:54;;;;;;;9.27;5.22;;;20.10;37.80;;;;;;5031670;28;20507;-68
2022/05/03 13:25:21;;;;;;;8.63;5.60;;;20.10;38.00;;;;;;5029102;28;20033;-68